Arnesen, Minnesota
Current Conditions -  °F | °C
As of 4:34 PM on Monday 24 Nov 2014 (Local Time) from KRRT Reporting Station
Light Snow Light Snow  
Wind Chill: -19°   Ceiling: Unl
Heat Index: -11°   Visibility: 10mi
Dew Point: -13°   Wind: 12mph
Humidity: 85%   Direction: 300°WNW
Pressure: 29.83"   Gusts: NA
Location:  48.6345°N, 95.1786°W
Report Text: KRRT 242234Z AUTO 30010KT 10SM -SN CLR M11/M13 A2983 RMK AO2
Loading
Personal Weather Stations






























Interactive Weather Map New forecast layout! Learn more

10-Day Weather Forecast

Advertisements
Track Severe Weather on mobile